createdAt,value
2023-07-22T00:00:04.597Z,1.90
2023-07-22T00:00:15.622Z,1.80
2023-07-22T00:00:26.587Z,1.80
2023-07-22T00:00:37.386Z,1.90
2023-07-22T00:00:48.431Z,1.90
2023-07-22T00:00:59.443Z,1.90
2023-07-22T00:01:10.197Z,2.00
2023-07-22T00:01:21.259Z,2.00
2023-07-22T00:01:32.232Z,1.90
2023-07-22T00:01:42.975Z,1.90
2023-07-22T00:01:54.000Z,2.10
2023-07-22T00:02:04.995Z,2.00
2023-07-22T00:02:15.736Z,1.90
2023-07-22T00:02:26.807Z,2.00
2023-07-22T00:02:37.767Z,1.90
2023-07-22T00:02:48.559Z,1.90
2023-07-22T00:02:59.342Z,1.90
2023-07-22T00:03:09.899Z,1.90
2023-07-22T00:03:20.770Z,2.00
2023-07-22T00:03:31.281Z,1.80
2023-07-22T00:03:42.236Z,1.90
2023-07-22T00:03:52.989Z,1.90
2023-07-22T00:04:04.026Z,2.00
2023-07-22T00:04:14.981Z,1.80
2023-07-22T00:04:25.756Z,1.70
2023-07-22T00:04:36.795Z,1.90
2023-07-22T00:04:47.757Z,1.90
2023-07-22T00:04:58.519Z,1.90
2023-07-22T00:05:09.566Z,2.00
2023-07-22T00:05:20.529Z,2.10
2023-07-22T00:05:31.298Z,2.00
2023-07-22T00:05:42.338Z,1.90
2023-07-22T00:05:53.302Z,1.90
2023-07-22T00:06:04.076Z,1.90
2023-07-22T00:06:15.131Z,1.80
2023-07-22T00:06:26.429Z,1.90
2023-07-22T00:06:36.700Z,1.90
2023-07-22T00:06:47.723Z,1.90
2023-07-22T00:06:58.691Z,1.90
2023-07-22T00:07:09.464Z,1.80
2023-07-22T00:07:20.508Z,2.00
2023-07-22T00:07:31.478Z,1.90
2023-07-22T00:07:42.239Z,1.90
2023-07-22T00:07:53.281Z,1.80
2023-07-22T00:08:04.252Z,1.80
2023-07-22T00:08:15.040Z,1.90
2023-07-22T00:08:26.056Z,1.90
2023-07-22T00:08:37.017Z,2.00
2023-07-22T00:08:47.788Z,2.00
2023-07-22T00:08:58.833Z,2.00
2023-07-22T00:09:09.793Z,1.80
2023-07-22T00:09:20.558Z,1.90
2023-07-22T00:09:31.601Z,2.00
2023-07-22T00:09:42.563Z,2.20
2023-07-22T00:09:53.332Z,2.10
2023-07-22T00:10:04.372Z,2.00
2023-07-22T00:10:15.339Z,1.80
2023-07-22T00:10:26.098Z,1.90
2023-07-22T00:10:37.157Z,2.10
2023-07-22T00:10:48.108Z,2.10
2023-07-22T00:10:58.878Z,2.00
2023-07-22T00:11:09.915Z,1.90
2023-07-22T00:11:20.894Z,1.90
2023-07-22T00:11:31.651Z,1.80
2023-07-22T00:11:42.691Z,1.80
2023-07-22T00:11:53.654Z,1.60
2023-07-22T00:12:04.565Z,1.90
2023-07-22T00:12:15.065Z,1.90
2023-07-22T00:12:26.033Z,1.90
2023-07-22T00:12:36.814Z,1.80
2023-07-22T00:12:47.871Z,1.80
2023-07-22T00:12:58.817Z,1.90
2023-07-22T00:13:09.588Z,1.90
2023-07-22T00:13:20.633Z,1.70
2023-07-22T00:13:31.597Z,1.70
2023-07-22T00:13:42.355Z,1.80
2023-07-22T00:13:53.406Z,2.00
2023-07-22T00:14:04.364Z,1.80
2023-07-22T00:14:15.126Z,1.80
2023-07-22T00:14:26.202Z,1.90
2023-07-22T00:14:37.169Z,1.90
2023-07-22T00:14:47.929Z,1.80
2023-07-22T00:14:58.974Z,1.80
2023-07-22T00:15:09.934Z,1.90
2023-07-22T00:15:20.700Z,1.90
2023-07-22T00:15:31.746Z,1.90
2023-07-22T00:15:42.708Z,2.00
2023-07-22T00:15:53.470Z,1.90
2023-07-22T00:16:04.514Z,1.80
2023-07-22T00:16:15.487Z,1.80
2023-07-22T00:16:26.618Z,1.90
2023-07-22T00:16:37.349Z,2.00
2023-07-22T00:16:48.303Z,1.90
2023-07-22T00:16:59.058Z,1.90
2023-07-22T00:17:10.207Z,1.80
2023-07-22T00:17:20.642Z,1.80
2023-07-22T00:17:31.390Z,1.90
2023-07-22T00:17:42.472Z,1.90
2023-07-22T00:17:53.470Z,2.00
2023-07-22T00:18:04.261Z,1.80
2023-07-22T00:18:14.775Z,1.90
2023-07-22T00:18:25.744Z,1.90
2023-07-22T00:18:36.506Z,2.00
2023-07-22T00:18:47.551Z,1.90
2023-07-22T00:18:58.507Z,1.80
2023-07-22T00:19:09.274Z,1.90
2023-07-22T00:19:22.146Z,2.00
2023-07-22T00:19:31.043Z,1.90
2023-07-22T00:19:41.804Z,2.00
2023-07-22T00:19:52.849Z,2.00
2023-07-22T00:20:03.835Z,1.90
2023-07-22T00:20:14.579Z,1.90
2023-07-22T00:20:25.622Z,1.70
2023-07-22T00:20:36.600Z,1.80
2023-07-22T00:20:47.366Z,1.80
2023-07-22T00:20:58.403Z,2.00
2023-07-22T00:21:09.379Z,2.00
2023-07-22T00:21:20.141Z,2.10
2023-07-22T00:21:31.176Z,2.00
2023-07-22T00:21:42.141Z,2.10
2023-07-22T00:21:52.904Z,2.00
2023-07-22T00:22:03.956Z,1.80
2023-07-22T00:22:14.938Z,1.80
2023-07-22T00:22:25.695Z,1.80
2023-07-22T00:22:36.742Z,1.90
2023-07-22T00:22:47.725Z,2.00
2023-07-22T00:22:58.533Z,2.20
2023-07-22T00:23:09.581Z,2.00
2023-07-22T00:23:20.544Z,2.00
2023-07-22T00:23:31.329Z,1.80
2023-07-22T00:23:42.369Z,2.10
2023-07-22T00:23:53.318Z,2.00
2023-07-22T00:24:04.082Z,2.00
2023-07-22T00:24:15.149Z,1.70
2023-07-22T00:24:26.162Z,1.70
2023-07-22T00:24:37.003Z,1.70
2023-07-22T00:24:47.534Z,1.90
2023-07-22T00:24:58.486Z,2.10
2023-07-22T00:25:09.250Z,2.00
2023-07-22T00:25:20.316Z,2.00
2023-07-22T00:25:31.260Z,2.00
2023-07-22T00:25:42.024Z,2.10
2023-07-22T00:25:53.070Z,1.90
2023-07-22T00:26:04.098Z,1.70
2023-07-22T00:26:14.828Z,1.80
2023-07-22T00:26:26.131Z,1.90
2023-07-22T00:26:36.709Z,2.00
2023-07-22T00:26:47.491Z,2.00
2023-07-22T00:26:58.526Z,2.30
2023-07-22T00:27:09.500Z,2.30
2023-07-22T00:27:20.291Z,2.30
2023-07-22T00:27:31.332Z,2.20
2023-07-22T00:27:42.363Z,2.20
2023-07-22T00:27:53.138Z,2.30
2023-07-22T00:28:04.173Z,2.30
2023-07-22T00:28:15.141Z,2.20
2023-07-22T00:28:25.907Z,2.10
2023-07-22T00:28:36.968Z,2.00
2023-07-22T00:28:47.920Z,1.80
2023-07-22T00:28:58.696Z,1.80
2023-07-22T00:29:09.756Z,1.80
2023-07-22T00:29:20.703Z,2.00
2023-07-22T00:29:31.486Z,2.00
2023-07-22T00:29:42.511Z,2.10
2023-07-22T00:29:53.475Z,2.00
2023-07-22T00:30:04.241Z,2.00
2023-07-22T00:30:15.286Z,2.00
2023-07-22T00:30:27.336Z,2.20
2023-07-22T00:30:37.033Z,2.10
2023-07-22T00:30:47.523Z,2.10
2023-07-22T00:30:58.698Z,1.80
2023-07-22T00:31:09.540Z,1.80
2023-07-22T00:31:20.606Z,2.00
2023-07-22T00:31:31.539Z,2.10
2023-07-22T00:31:42.298Z,2.10
2023-07-22T00:31:53.343Z,1.90
2023-07-22T00:32:04.308Z,2.00
2023-07-22T00:32:15.097Z,2.00
2023-07-22T00:32:26.144Z,2.10
2023-07-22T00:32:37.105Z,2.00
2023-07-22T00:32:47.892Z,2.00
2023-07-22T00:32:58.953Z,2.00
2023-07-22T00:33:09.968Z,2.00
2023-07-22T00:33:20.796Z,1.90
2023-07-22T00:33:31.771Z,1.90
2023-07-22T00:33:42.766Z,1.80
2023-07-22T00:33:53.529Z,1.90
2023-07-22T00:34:04.669Z,2.10
2023-07-22T00:34:15.634Z,2.00
2023-07-22T00:34:26.389Z,2.00
2023-07-22T00:34:37.431Z,1.80
2023-07-22T00:34:48.399Z,1.90
2023-07-22T00:34:59.167Z,1.90
2023-07-22T00:35:10.205Z,1.90
2023-07-22T00:35:21.168Z,2.00
2023-07-22T00:35:31.957Z,1.90
2023-07-22T00:35:42.978Z,2.00
2023-07-22T00:35:53.959Z,2.00
2023-07-22T00:36:04.732Z,2.10
2023-07-22T00:36:15.755Z,2.00
2023-07-22T00:36:27.020Z,2.00
2023-07-22T00:36:37.865Z,2.10
2023-07-22T00:36:48.911Z,2.10
2023-07-22T00:36:59.869Z,2.10
2023-07-22T00:37:10.635Z,2.00
2023-07-22T00:37:21.677Z,2.00
2023-07-22T00:37:32.651Z,2.00
2023-07-22T00:37:43.427Z,1.90
2023-07-22T00:37:54.464Z,1.80
2023-07-22T00:38:05.474Z,1.80
2023-07-22T00:38:16.322Z,2.00
2023-07-22T00:38:26.870Z,2.10
2023-07-22T00:38:37.876Z,2.20
2023-07-22T00:38:48.677Z,2.00
2023-07-22T00:38:59.753Z,2.00
2023-07-22T00:39:10.256Z,2.20
2023-07-22T00:39:21.015Z,2.30
2023-07-22T00:39:32.078Z,2.20
2023-07-22T00:39:43.024Z,2.20
2023-07-22T00:39:53.792Z,2.10
2023-07-22T00:40:04.834Z,2.20
2023-07-22T00:40:15.798Z,2.10
2023-07-22T00:40:26.560Z,2.40
2023-07-22T00:40:37.606Z,2.40
2023-07-22T00:40:48.570Z,2.40
2023-07-22T00:40:59.337Z,2.10
2023-07-22T00:41:10.384Z,2.20
2023-07-22T00:41:21.348Z,2.10
2023-07-22T00:41:32.110Z,2.00
2023-07-22T00:41:43.156Z,1.80
2023-07-22T00:41:54.126Z,1.80
2023-07-22T00:42:04.890Z,2.00
2023-07-22T00:42:15.930Z,2.10
2023-07-22T00:42:26.899Z,2.10
2023-07-22T00:42:37.673Z,2.10
2023-07-22T00:42:48.734Z,2.10
2023-07-22T00:42:59.677Z,2.50
2023-07-22T00:43:10.455Z,2.30
2023-07-22T00:43:21.500Z,2.20
2023-07-22T00:43:32.469Z,2.10
2023-07-22T00:43:43.232Z,2.10
2023-07-22T00:43:54.280Z,2.20
2023-07-22T00:44:05.240Z,2.00
2023-07-22T00:44:16.012Z,2.10
2023-07-22T00:44:27.058Z,2.10
2023-07-22T00:44:38.016Z,2.20
2023-07-22T00:44:48.776Z,2.20
2023-07-22T00:44:59.840Z,2.10
2023-07-22T00:45:10.793Z,2.10
2023-07-22T00:45:21.551Z,2.10
2023-07-22T00:45:32.595Z,2.10
2023-07-22T00:45:43.556Z,2.10
2023-07-22T00:45:54.326Z,2.10
2023-07-22T00:46:05.380Z,2.20
2023-07-22T00:46:16.379Z,2.10
2023-07-22T00:46:27.416Z,2.00
2023-07-22T00:46:38.081Z,1.90
2023-07-22T00:46:49.055Z,1.90
2023-07-22T00:46:59.840Z,1.90
2023-07-22T00:47:10.876Z,1.90
2023-07-22T00:47:21.865Z,2.10
2023-07-22T00:47:32.633Z,1.90
2023-07-22T00:47:43.741Z,1.80
2023-07-22T00:47:54.703Z,1.90
2023-07-22T00:48:05.458Z,2.10
2023-07-22T00:48:16.513Z,2.20
2023-07-22T00:48:27.482Z,2.10
2023-07-22T00:48:38.240Z,2.10
2023-07-22T00:48:49.281Z,2.30
2023-07-22T00:49:00.250Z,2.30
2023-07-22T00:49:11.021Z,2.10
2023-07-22T00:49:22.061Z,2.00
2023-07-22T00:49:33.024Z,1.90
2023-07-22T00:49:43.791Z,1.90
2023-07-22T00:49:54.833Z,2.10
2023-07-22T00:50:05.802Z,2.00
2023-07-22T00:50:16.590Z,2.20
2023-07-22T00:50:27.637Z,2.10
2023-07-22T00:50:38.600Z,2.30
2023-07-22T00:50:49.362Z,2.20
2023-07-22T00:51:00.405Z,2.20
2023-07-22T00:51:11.367Z,2.10
2023-07-22T00:51:22.158Z,1.90
2023-07-22T00:51:33.198Z,1.80
2023-07-22T00:51:44.180Z,1.90
2023-07-22T00:51:54.937Z,2.10
2023-07-22T00:52:05.974Z,2.20
2023-07-22T00:52:16.942Z,2.40
2023-07-22T00:52:27.705Z,2.40
2023-07-22T00:52:38.764Z,2.40
2023-07-22T00:52:49.729Z,2.20
2023-07-22T00:53:00.493Z,2.00
2023-07-22T00:53:11.533Z,2.00
2023-07-22T00:53:22.523Z,2.20
2023-07-22T00:53:33.284Z,2.30
2023-07-22T00:53:44.329Z,2.30
2023-07-22T00:53:55.291Z,2.20
2023-07-22T00:54:06.060Z,1.90
2023-07-22T00:54:17.121Z,2.10
2023-07-22T00:54:28.071Z,2.10
2023-07-22T00:54:38.825Z,2.40
2023-07-22T00:54:49.869Z,2.20
2023-07-22T00:55:00.843Z,2.40
2023-07-22T00:55:11.597Z,2.10
2023-07-22T00:55:22.643Z,2.30
2023-07-22T00:55:33.608Z,2.30
2023-07-22T00:55:44.373Z,2.20
2023-07-22T00:55:55.418Z,2.10
2023-07-22T00:56:06.384Z,2.10
2023-07-22T00:56:17.149Z,2.10
2023-07-22T00:56:28.479Z,2.30
2023-07-22T00:56:39.051Z,2.20
2023-07-22T00:56:49.810Z,2.20
2023-07-22T00:57:00.854Z,2.00
2023-07-22T00:57:11.818Z,2.00
2023-07-22T00:57:22.585Z,2.10
2023-07-22T00:57:33.634Z,2.10
2023-07-22T00:57:44.611Z,2.20
2023-07-22T00:57:55.377Z,2.20
2023-07-22T00:58:06.424Z,2.20
2023-07-22T00:58:17.409Z,1.90
2023-07-22T00:58:28.173Z,2.00
2023-07-22T00:58:39.217Z,2.10
2023-07-22T00:58:50.174Z,2.30
2023-07-22T00:59:00.953Z,2.20
2023-07-22T00:59:11.989Z,2.10
2023-07-22T00:59:22.946Z,2.20
2023-07-22T00:59:33.714Z,2.30
2023-07-22T00:59:44.763Z,2.40
2023-07-22T00:59:55.722Z,2.40
2023-07-22T01:00:06.486Z,2.30
2023-07-22T01:00:17.628Z,2.40
2023-07-22T01:00:28.786Z,2.30
2023-07-22T01:00:39.648Z,2.20
2023-07-22T01:00:50.710Z,2.10
2023-07-22T01:01:01.658Z,2.20
2023-07-22T01:01:12.448Z,2.20
2023-07-22T01:01:23.509Z,2.20
2023-07-22T01:01:34.454Z,2.00
2023-07-22T01:01:45.229Z,2.00
2023-07-22T01:01:56.376Z,1.90
2023-07-22T01:02:07.411Z,1.90
2023-07-22T01:02:18.199Z,2.10
2023-07-22T01:02:29.300Z,2.20
2023-07-22T01:02:40.296Z,2.40
2023-07-22T01:02:51.131Z,2.20
2023-07-22T01:03:02.259Z,2.10
2023-07-22T01:03:12.772Z,2.10
2023-07-22T01:03:23.582Z,2.20
2023-07-22T01:03:34.598Z,2.40
2023-07-22T01:03:45.554Z,2.50
2023-07-22T01:03:56.327Z,2.30
2023-07-22T01:04:07.363Z,2.20
2023-07-22T01:04:18.324Z,2.20
2023-07-22T01:04:29.092Z,2.20
2023-07-22T01:04:40.135Z,2.30
2023-07-22T01:04:51.123Z,2.20
2023-07-22T01:05:01.864Z,2.40
2023-07-22T01:05:12.911Z,2.20
2023-07-22T01:05:23.873Z,2.30
2023-07-22T01:05:34.651Z,2.10
2023-07-22T01:05:45.692Z,2.30
2023-07-22T01:05:56.650Z,2.30
2023-07-22T01:06:07.413Z,2.30
2023-07-22T01:06:18.457Z,2.30
2023-07-22T01:06:29.554Z,2.40
2023-07-22T01:06:40.393Z,2.30
2023-07-22T01:06:51.428Z,2.10
2023-07-22T01:07:02.395Z,2.20
2023-07-22T01:07:13.186Z,2.30
2023-07-22T01:07:24.230Z,2.20
2023-07-22T01:07:35.199Z,2.10
2023-07-22T01:07:45.965Z,2.10
2023-07-22T01:07:57.004Z,2.10
2023-07-22T01:08:07.986Z,2.30
2023-07-22T01:08:18.739Z,2.70
2023-07-22T01:08:29.790Z,2.60
2023-07-22T01:08:40.773Z,2.50
2023-07-22T01:08:51.530Z,2.30
2023-07-22T01:09:02.574Z,2.30
2023-07-22T01:09:13.541Z,2.50
2023-07-22T01:09:24.312Z,2.60
2023-07-22T01:09:35.352Z,2.40
2023-07-22T01:09:46.313Z,2.20
2023-07-22T01:09:57.076Z,2.20
2023-07-22T01:10:08.126Z,2.20
2023-07-22T01:10:19.082Z,2.30
2023-07-22T01:10:30.074Z,2.30
2023-07-22T01:10:41.119Z,2.50
2023-07-22T01:10:52.082Z,2.50
2023-07-22T01:11:02.861Z,2.30
2023-07-22T01:11:13.902Z,2.20
2023-07-22T01:11:24.861Z,2.30
2023-07-22T01:11:35.628Z,2.10
2023-07-22T01:11:46.669Z,2.00
2023-07-22T01:11:57.635Z,1.80
2023-07-22T01:12:08.400Z,1.90
2023-07-22T01:12:19.439Z,2.00
2023-07-22T01:12:30.412Z,2.20
2023-07-22T01:12:41.165Z,2.20
2023-07-22T01:12:52.214Z,2.20
2023-07-22T01:13:03.178Z,2.00
2023-07-22T01:13:13.953Z,2.00
2023-07-22T01:13:25.009Z,2.00
2023-07-22T01:13:35.958Z,2.10
2023-07-22T01:13:46.721Z,2.20
2023-07-22T01:13:57.768Z,2.30
2023-07-22T01:14:08.728Z,2.20
2023-07-22T01:14:19.494Z,2.40
2023-07-22T01:14:30.545Z,2.30
2023-07-22T01:14:41.513Z,2.30
2023-07-22T01:14:52.275Z,2.20
2023-07-22T01:15:03.325Z,2.10
2023-07-22T01:15:14.284Z,2.20
2023-07-22T01:15:25.073Z,2.30
2023-07-22T01:15:36.098Z,2.30
2023-07-22T01:15:47.073Z,2.30
2023-07-22T01:15:57.818Z,2.30
2023-07-22T01:16:08.993Z,2.30
2023-07-22T01:16:19.941Z,2.20
2023-07-22T01:16:30.733Z,2.30
2023-07-22T01:16:41.771Z,2.20
2023-07-22T01:16:52.734Z,2.20
2023-07-22T01:17:03.510Z,2.10
2023-07-22T01:17:14.518Z,2.20
2023-07-22T01:17:27.154Z,2.20
2023-07-22T01:17:36.279Z,2.40
2023-07-22T01:17:47.352Z,2.40
2023-07-22T01:17:58.306Z,2.50
2023-07-22T01:18:09.096Z,2.40
2023-07-22T01:18:19.599Z,2.40
2023-07-22T01:18:30.564Z,2.30
2023-07-22T01:18:41.331Z,2.20
2023-07-22T01:18:52.389Z,2.10
2023-07-22T01:19:03.353Z,2.00
2023-07-22T01:19:14.119Z,2.10
2023-07-22T01:19:25.173Z,2.10
2023-07-22T01:19:36.178Z,2.40
2023-07-22T01:19:46.914Z,2.60
2023-07-22T01:19:57.953Z,2.50
2023-07-22T01:20:08.927Z,2.20
2023-07-22T01:20:19.689Z,2.10
2023-07-22T01:20:30.728Z,2.20
2023-07-22T01:20:41.695Z,2.30
2023-07-22T01:20:52.457Z,2.40
2023-07-22T01:21:03.510Z,2.40
2023-07-22T01:21:14.470Z,2.30
2023-07-22T01:21:25.236Z,2.20
2023-07-22T01:21:36.289Z,2.10
2023-07-22T01:21:47.236Z,2.20
2023-07-22T01:21:58.002Z,2.30
2023-07-22T01:22:09.321Z,2.50
2023-07-22T01:22:19.778Z,2.30
2023-07-22T01:22:30.544Z,2.30
2023-07-22T01:22:41.590Z,2.30
2023-07-22T01:22:52.596Z,2.20
2023-07-22T01:23:03.327Z,2.10
2023-07-22T01:23:14.361Z,2.10
2023-07-22T01:23:25.342Z,2.30
2023-07-22T01:23:36.115Z,2.50
2023-07-22T01:23:47.141Z,2.30
2023-07-22T01:23:58.106Z,2.50
2023-07-22T01:24:08.892Z,2.50
2023-07-22T01:24:19.941Z,2.70
2023-07-22T01:24:30.982Z,2.50
2023-07-22T01:24:41.757Z,2.50
2023-07-22T01:24:52.831Z,2.30
2023-07-22T01:25:03.824Z,2.10
2023-07-22T01:25:14.592Z,2.10
2023-07-22T01:25:36.599Z,2.10
2023-07-22T01:25:47.374Z,2.10
2023-07-22T01:25:58.408Z,2.10
2023-07-22T01:26:09.371Z,2.30
2023-07-22T01:26:20.162Z,2.30
2023-07-22T01:26:31.197Z,2.20
2023-07-22T01:26:42.150Z,2.20
2023-07-22T01:26:52.922Z,2.20
2023-07-22T01:27:03.958Z,2.20
2023-07-22T01:27:14.922Z,2.10
2023-07-22T01:27:25.692Z,2.20
2023-07-22T01:27:36.737Z,2.20
2023-07-22T01:27:47.708Z,2.30
2023-07-22T01:27:58.467Z,2.40
2023-07-22T01:28:09.538Z,2.40
2023-07-22T01:28:20.520Z,2.50
2023-07-22T01:28:31.295Z,2.40
2023-07-22T01:28:42.334Z,2.40
2023-07-22T01:28:53.309Z,2.50
2023-07-22T01:29:04.072Z,2.50
2023-07-22T01:29:15.114Z,2.30
2023-07-22T01:29:26.103Z,2.50
2023-07-22T01:29:36.850Z,2.60
2023-07-22T01:29:47.897Z,2.80
2023-07-22T01:29:58.858Z,2.60
2023-07-22T01:30:09.657Z,2.60
2023-07-22T01:30:20.718Z,2.60
2023-07-22T01:30:31.740Z,2.60
2023-07-22T01:30:42.499Z,2.50
2023-07-22T01:30:53.533Z,2.50
2023-07-22T01:31:04.536Z,2.40
2023-07-22T01:31:15.337Z,2.70
2023-07-22T01:31:25.833Z,2.70
2023-07-22T01:31:36.798Z,2.80
2023-07-22T01:31:47.586Z,2.70
2023-07-22T01:31:58.601Z,2.70
2023-07-22T01:32:09.570Z,2.60
2023-07-22T01:32:20.348Z,2.80
2023-07-22T01:32:31.445Z,2.80
2023-07-22T01:32:42.448Z,2.80
2023-07-22T01:32:53.246Z,2.70
2023-07-22T01:33:04.314Z,2.80
2023-07-22T01:33:15.262Z,2.70
2023-07-22T01:33:26.021Z,2.70
2023-07-22T01:33:37.067Z,2.70
2023-07-22T01:33:48.032Z,2.60
2023-07-22T01:33:58.810Z,2.70
2023-07-22T01:34:09.860Z,2.80
2023-07-22T01:34:20.819Z,2.60
2023-07-22T01:34:31.591Z,2.70
2023-07-22T01:34:42.625Z,2.70
2023-07-22T01:34:53.589Z,2.70
2023-07-22T01:35:04.357Z,2.50
2023-07-22T01:35:15.398Z,2.50
2023-07-22T01:35:26.362Z,2.60
2023-07-22T01:35:37.138Z,2.60
2023-07-22T01:35:48.179Z,2.50
2023-07-22T01:35:59.134Z,2.60
2023-07-22T01:36:09.898Z,2.60
2023-07-22T01:36:20.939Z,2.60
2023-07-22T01:36:31.914Z,2.50
2023-07-22T01:36:42.681Z,2.40
2023-07-22T01:36:53.717Z,2.50
2023-07-22T01:37:04.685Z,2.40
2023-07-22T01:37:15.457Z,2.80
2023-07-22T01:37:26.492Z,2.70
2023-07-22T01:37:37.457Z,2.60
2023-07-22T01:37:48.299Z,2.40
2023-07-22T01:37:59.346Z,2.50
2023-07-22T01:38:10.311Z,2.70
2023-07-22T01:38:21.085Z,3.00
2023-07-22T01:38:32.132Z,2.80
2023-07-22T01:38:43.105Z,2.60
2023-07-22T01:38:53.860Z,2.70
2023-07-22T01:39:04.907Z,2.70
2023-07-22T01:39:15.873Z,2.70
2023-07-22T01:39:26.635Z,2.40
2023-07-22T01:39:37.678Z,2.50
2023-07-22T01:39:48.660Z,2.70
2023-07-22T01:39:59.422Z,2.70
2023-07-22T01:40:10.452Z,2.60
2023-07-22T01:40:21.416Z,2.70
2023-07-22T01:40:32.180Z,2.80
2023-07-22T01:40:43.233Z,2.80
2023-07-22T01:40:54.187Z,2.80
2023-07-22T01:41:04.955Z,2.90
2023-07-22T01:41:16.001Z,2.90
2023-07-22T01:41:26.965Z,2.80
2023-07-22T01:41:37.736Z,2.60
2023-07-22T01:41:48.777Z,2.60
2023-07-22T01:41:59.744Z,2.80
2023-07-22T01:42:10.516Z,3.00
2023-07-22T01:42:21.557Z,2.80
2023-07-22T01:42:32.510Z,2.80
2023-07-22T01:42:43.291Z,2.80
2023-07-22T01:42:54.333Z,2.90
2023-07-22T01:43:05.292Z,2.90
2023-07-22T01:43:16.080Z,2.90
2023-07-22T01:43:27.093Z,3.10
2023-07-22T01:43:38.076Z,3.00
2023-07-22T01:43:48.848Z,2.70
2023-07-22T01:43:59.889Z,2.70
2023-07-22T01:44:10.853Z,2.70
2023-07-22T01:44:21.621Z,2.70
2023-07-22T01:44:32.660Z,2.70
2023-07-22T01:44:43.628Z,2.80
2023-07-22T01:44:54.442Z,2.90
2023-07-22T01:45:05.482Z,2.90
2023-07-22T01:45:16.442Z,2.80
2023-07-22T01:45:27.224Z,2.90
2023-07-22T01:45:38.255Z,2.80
2023-07-22T01:45:49.217Z,2.70
2023-07-22T01:45:59.997Z,2.80
2023-07-22T01:46:11.108Z,2.70
2023-07-22T01:46:22.095Z,2.70
2023-07-22T01:46:32.912Z,2.70
2023-07-22T01:46:43.963Z,2.80
2023-07-22T01:46:54.946Z,2.90
2023-07-22T01:47:05.677Z,2.90
2023-07-22T01:47:16.738Z,3.00
2023-07-22T01:47:27.784Z,3.10
2023-07-22T01:47:38.659Z,3.20
2023-07-22T01:47:49.237Z,3.10
2023-07-22T01:48:00.226Z,2.90
2023-07-22T01:48:10.987Z,3.10
2023-07-22T01:48:22.022Z,3.00
2023-07-22T01:48:32.983Z,2.90
2023-07-22T01:48:43.763Z,3.00
2023-07-22T01:48:54.810Z,3.00
2023-07-22T01:49:05.776Z,2.80
2023-07-22T01:49:16.553Z,2.70
2023-07-22T01:49:27.592Z,2.70
2023-07-22T01:49:38.560Z,2.80
2023-07-22T01:49:49.329Z,2.80
2023-07-22T01:50:00.377Z,3.00
2023-07-22T01:50:11.397Z,3.10
2023-07-22T01:50:22.134Z,3.00
2023-07-22T01:50:33.179Z,2.90
2023-07-22T01:50:44.217Z,3.20
2023-07-22T01:50:54.972Z,3.40
2023-07-22T01:51:06.015Z,3.30
2023-07-22T01:51:16.980Z,3.30
2023-07-22T01:51:27.742Z,2.80
2023-07-22T01:51:38.797Z,2.80
2023-07-22T01:51:49.752Z,2.80
2023-07-22T01:52:00.520Z,2.70
2023-07-22T01:52:11.566Z,2.70
2023-07-22T01:52:22.536Z,2.60
2023-07-22T01:52:33.294Z,2.90
2023-07-22T01:52:44.339Z,2.90
2023-07-22T01:52:55.304Z,2.90
2023-07-22T01:53:06.067Z,3.00
2023-07-22T01:53:17.110Z,3.00
2023-07-22T01:53:28.075Z,2.90
2023-07-22T01:53:38.848Z,2.90
2023-07-22T01:53:49.899Z,3.00
2023-07-22T01:54:00.866Z,3.10
2023-07-22T01:54:11.828Z,2.90
2023-07-22T01:54:22.379Z,2.90
2023-07-22T01:54:33.341Z,2.70
2023-07-22T01:54:44.103Z,2.70
2023-07-22T01:54:55.162Z,2.60
2023-07-22T01:55:06.114Z,2.70
2023-07-22T01:55:16.883Z,2.60
2023-07-22T01:55:27.938Z,2.70
2023-07-22T01:55:38.886Z,2.80
2023-07-22T01:55:49.659Z,2.70
2023-07-22T01:56:00.711Z,2.70
2023-07-22T01:56:11.664Z,2.70
2023-07-22T01:56:22.434Z,2.70
2023-07-22T01:56:33.485Z,2.60
2023-07-22T01:56:44.435Z,2.70
2023-07-22T01:56:55.201Z,2.80
2023-07-22T01:57:06.259Z,2.90
2023-07-22T01:57:17.218Z,2.70
2023-07-22T01:57:27.982Z,2.70
2023-07-22T01:57:39.024Z,2.50
2023-07-22T01:57:49.988Z,2.70
2023-07-22T01:58:00.766Z,2.80
2023-07-22T01:58:11.798Z,2.80
2023-07-22T01:58:22.774Z,2.70
2023-07-22T01:58:33.526Z,2.60
2023-07-22T01:58:44.572Z,2.60
2023-07-22T01:58:55.548Z,2.80
2023-07-22T01:59:06.315Z,2.80
2023-07-22T01:59:16.902Z,2.80
2023-07-22T01:59:27.889Z,2.60
2023-07-22T01:59:38.638Z,2.50
2023-07-22T01:59:49.682Z,2.60
2023-07-22T02:00:00.675Z,2.50
2023-07-22T02:00:11.412Z,2.50
2023-07-22T02:00:22.473Z,2.90
2023-07-22T02:00:33.430Z,3.00
2023-07-22T02:00:44.203Z,3.00
2023-07-22T02:00:55.241Z,2.50
2023-07-22T02:01:06.205Z,2.50
2023-07-22T02:01:16.993Z,2.70
2023-07-22T02:01:28.026Z,2.80
2023-07-22T02:01:38.995Z,2.70
2023-07-22T02:01:49.936Z,2.60
2023-07-22T02:02:00.996Z,2.60
2023-07-22T02:02:11.949Z,2.60
2023-07-22T02:02:22.783Z,2.60
2023-07-22T02:02:33.496Z,2.60
2023-07-22T02:02:44.544Z,2.70
2023-07-22T02:02:55.734Z,2.80
2023-07-22T02:03:06.279Z,2.90
2023-07-22T02:03:17.343Z,2.90
2023-07-22T02:03:28.214Z,2.90
2023-07-22T02:03:38.825Z,3.00
2023-07-22T02:03:49.872Z,3.10
2023-07-22T02:04:00.708Z,2.90
2023-07-22T02:04:11.363Z,2.90
2023-07-22T02:04:22.388Z,2.90
2023-07-22T02:04:33.185Z,2.90
2023-07-22T02:04:43.995Z,2.80
2023-07-22T02:04:54.994Z,2.90
2023-07-22T02:05:05.756Z,2.80
2023-07-22T02:05:16.805Z,2.60
2023-07-22T02:05:27.756Z,2.60
2023-07-22T02:05:38.525Z,2.50
2023-07-22T02:05:49.575Z,2.70
2023-07-22T02:06:00.622Z,2.80
2023-07-22T02:06:11.386Z,2.70
2023-07-22T02:06:22.434Z,2.70
2023-07-22T02:06:33.398Z,2.90
2023-07-22T02:06:44.229Z,3.00
2023-07-22T02:06:55.289Z,2.90
2023-07-22T02:07:06.271Z,2.90
2023-07-22T02:07:17.099Z,3.00
2023-07-22T02:07:28.140Z,3.00
2023-07-22T02:07:39.109Z,3.10
2023-07-22T02:07:49.867Z,3.00
2023-07-22T02:08:00.922Z,3.10
2023-07-22T02:08:11.885Z,2.90
2023-07-22T02:08:22.643Z,2.90
2023-07-22T02:08:33.687Z,2.80
2023-07-22T02:08:44.662Z,2.70
2023-07-22T02:08:55.419Z,2.50
2023-07-22T02:09:06.476Z,2.70
2023-07-22T02:09:17.438Z,2.90
2023-07-22T02:09:28.206Z,3.00
2023-07-22T02:09:39.257Z,2.90
2023-07-22T02:09:50.223Z,2.80
2023-07-22T02:10:01.017Z,2.80
2023-07-22T02:10:12.032Z,2.80
2023-07-22T02:10:22.997Z,2.80
2023-07-22T02:10:33.760Z,2.90
2023-07-22T02:10:44.861Z,2.80
2023-07-22T02:10:55.768Z,2.90
2023-07-22T02:11:06.537Z,2.70
2023-07-22T02:11:17.580Z,2.60
2023-07-22T02:11:28.562Z,2.80
2023-07-22T02:11:39.310Z,2.90
2023-07-22T02:11:50.355Z,3.00
2023-07-22T02:12:01.316Z,2.80
2023-07-22T02:12:12.084Z,3.00
2023-07-22T02:12:23.128Z,3.00
2023-07-22T02:12:34.088Z,3.00
2023-07-22T02:12:44.857Z,2.80
2023-07-22T02:12:55.902Z,2.60
2023-07-22T02:13:06.864Z,2.50
2023-07-22T02:13:17.664Z,2.70
2023-07-22T02:13:28.670Z,2.70
2023-07-22T02:13:39.641Z,2.90
2023-07-22T02:13:50.404Z,2.80
2023-07-22T02:14:01.448Z,3.10
2023-07-22T02:14:12.415Z,2.80
2023-07-22T02:14:23.194Z,2.80
2023-07-22T02:14:34.227Z,2.60
2023-07-22T02:14:45.205Z,2.80
2023-07-22T02:14:55.969Z,2.80
2023-07-22T02:15:07.016Z,2.90
2023-07-22T02:15:17.974Z,2.90
2023-07-22T02:15:28.759Z,2.80
2023-07-22T02:15:39.784Z,2.70
2023-07-22T02:15:50.768Z,2.60
2023-07-22T02:16:01.569Z,2.70
2023-07-22T02:16:12.758Z,2.80
2023-07-22T02:16:23.293Z,2.90
2023-07-22T02:16:34.076Z,2.90
2023-07-22T02:16:44.599Z,2.90
2023-07-22T02:16:55.535Z,2.90
2023-07-22T02:17:06.292Z,2.80
2023-07-22T02:17:17.363Z,2.80
2023-07-22T02:17:28.346Z,2.70
2023-07-22T02:17:39.105Z,2.80
2023-07-22T02:17:50.233Z,2.60
2023-07-22T02:18:00.871Z,2.60
2023-07-22T02:18:11.628Z,2.70
2023-07-22T02:18:22.668Z,2.80
2023-07-22T02:18:33.641Z,2.60
2023-07-22T02:18:44.405Z,2.60
2023-07-22T02:18:55.451Z,2.50
2023-07-22T02:19:06.474Z,2.80
2023-07-22T02:19:17.219Z,2.80
2023-07-22T02:19:28.244Z,2.80
2023-07-22T02:19:39.205Z,2.60
2023-07-22T02:19:49.976Z,2.60
2023-07-22T02:20:01.034Z,2.60
2023-07-22T02:20:12.013Z,2.70
2023-07-22T02:20:22.755Z,2.60
2023-07-22T02:20:33.802Z,2.60
2023-07-22T02:20:44.780Z,2.70
2023-07-22T02:20:55.529Z,2.80
2023-07-22T02:21:06.570Z,2.60
2023-07-22T02:21:17.534Z,2.60
2023-07-22T02:21:28.303Z,2.60
2023-07-22T02:21:39.350Z,2.60
2023-07-22T02:21:50.312Z,2.60
2023-07-22T02:22:01.076Z,2.50
2023-07-22T02:22:12.121Z,2.60
2023-07-22T02:22:23.082Z,2.60
2023-07-22T02:22:33.897Z,2.70
2023-07-22T02:22:44.911Z,2.50
2023-07-22T02:22:55.865Z,2.60
2023-07-22T02:23:08.716Z,2.50
2023-07-22T02:23:17.464Z,2.60
2023-07-22T02:23:28.433Z,2.70
2023-07-22T02:23:39.191Z,2.80
2023-07-22T02:23:50.247Z,2.80
2023-07-22T02:24:01.199Z,2.70
2023-07-22T02:24:11.982Z,2.60
2023-07-22T02:24:23.088Z,2.60
2023-07-22T02:24:34.058Z,2.80
2023-07-22T02:24:44.868Z,2.80
2023-07-22T02:24:55.362Z,2.90
2023-07-22T02:25:06.326Z,3.00
2023-07-22T02:25:17.091Z,2.80
2023-07-22T02:25:28.145Z,3.10